Time;durP1;ratioP1;P1;durP2;ratioP2;P2;SDS_P1;SDS_P2;PMS_P1;PMS_P2;Temp;Humidity;BMP_temperature;BMP_pressure;BME280_temperature;BME280_humidity;BME280_pressure;Samples;Min_cycle;Max_cycle;Signal;HPM_P1;HPM_P2
2021/01/11 00:01:43;;;;;;;39.25;22.83;;;2.20;67.40;;;;;;4983290;28;20042;-61
2021/01/11 00:04:09;;;;;;;37.95;23.98;;;2.20;67.40;;;;;;5023569;28;20052;-61
2021/01/11 00:06:42;;;;;;;39.75;22.85;;;2.20;67.30;;;;;;5022737;28;20041;-62
2021/01/11 00:09:08;;;;;;;40.30;23.25;;;2.20;67.40;;;;;;4988391;28;20501;-62
2021/01/11 00:11:35;;;;;;;36.40;22.25;;;2.20;67.20;;;;;;5025509;28;20125;-62
2021/01/11 00:14:03;;;;;;;38.72;23.27;;;2.20;67.00;;;;;;5005395;28;20028;-61
2021/01/11 00:16:30;;;;;;;37.20;22.67;;;2.20;67.00;;;;;;5022029;28;20036;-61
2021/01/11 00:18:56;;;;;;;37.65;22.15;;;2.20;67.20;;;;;;5024618;28;20564;-61
2021/01/11 00:21:22;;;;;;;32.85;21.55;;;2.20;67.10;;;;;;5006177;28;20140;-70
2021/01/11 00:23:48;;;;;;;37.88;22.73;;;2.20;67.00;;;;;;5021953;28;20033;-62
2021/01/11 00:26:13;;;;;;;36.22;21.77;;;2.10;66.90;;;;;;5020481;28;20022;-62
2021/01/11 00:28:40;;;;;;;37.45;22.75;;;2.10;66.90;;;;;;5021327;28;20028;-61
2021/01/11 00:31:06;;;;;;;36.40;21.73;;;2.20;66.80;;;;;;5023974;28;20465;-61
2021/01/11 00:33:31;;;;;;;33.75;21.38;;;2.20;67.20;;;;;;5002481;28;20033;-64
2021/01/11 00:35:57;;;;;;;35.60;21.92;;;2.10;66.60;;;;;;5012977;28;20030;-61
2021/01/11 00:38:23;;;;;;;34.65;21.42;;;2.20;66.40;;;;;;4994639;28;20026;-70
2021/01/11 00:40:49;;;;;;;35.03;20.30;;;2.10;66.50;;;;;;5013535;28;20056;-62
2021/01/11 00:43:14;;;;;;;33.42;20.80;;;2.10;66.30;;;;;;5013040;28;20038;-61
2021/01/11 00:45:40;;;;;;;35.97;21.05;;;2.00;66.40;;;;;;5003257;28;20030;-62
2021/01/11 00:48:06;;;;;;;33.42;21.25;;;2.00;66.30;;;;;;4995009;28;20030;-63
2021/01/11 00:50:32;;;;;;;32.97;20.88;;;2.10;66.10;;;;;;5001619;28;20433;-61
2021/01/11 00:52:57;;;;;;;34.88;21.25;;;2.00;66.10;;;;;;5003262;28;20033;-61
2021/01/11 00:55:24;;;;;;;34.60;20.88;;;2.00;66.30;;;;;;4986018;28;20045;-67
2021/01/11 00:57:49;;;;;;;34.72;19.98;;;1.90;66.30;;;;;;5020738;28;20038;-63
2021/01/11 01:00:16;;;;;;;30.50;19.45;;;1.90;66.50;;;;;;5022836;28;20075;-62
2021/01/11 01:02:42;;;;;;;33.40;19.23;;;1.90;66.30;;;;;;5003907;28;20433;-61
2021/01/11 01:05:11;;;;;;;35.03;20.60;;;1.90;66.50;;;;;;5020962;28;20087;-63
2021/01/11 01:07:41;;;;;;;29.77;18.23;;;1.80;66.30;;;;;;5022816;28;20359;-61
2021/01/11 01:10:08;;;;;;;30.27;18.58;;;1.70;66.60;;;;;;5016728;28;22256;-63
2021/01/11 01:12:34;;;;;;;31.92;19.77;;;1.70;66.70;;;;;;5023297;28;20030;-62
2021/01/11 01:15:00;;;;;;;33.88;19.77;;;1.70;66.70;;;;;;5005680;28;20455;-62
2021/01/11 01:17:26;;;;;;;35.55;20.52;;;1.70;66.70;;;;;;5019929;28;20142;-62
2021/01/11 01:19:52;;;;;;;35.90;20.60;;;1.70;66.50;;;;;;5019907;28;20056;-61
2021/01/11 01:22:17;;;;;;;31.83;20.02;;;1.80;66.40;;;;;;5020741;28;20042;-62
2021/01/11 01:24:43;;;;;;;30.35;19.25;;;1.80;66.60;;;;;;5021357;28;20187;-61
2021/01/11 01:27:09;;;;;;;32.50;19.38;;;1.90;66.30;;;;;;5017968;28;20069;-63
2021/01/11 01:29:34;;;;;;;29.58;18.80;;;1.80;66.00;;;;;;5019153;28;20105;-62
2021/01/11 01:32:00;;;;;;;32.83;19.38;;;1.90;65.90;;;;;;5012705;28;20034;-60
2021/01/11 01:34:26;;;;;;;31.05;19.45;;;1.80;65.60;;;;;;5010366;28;20479;-61
2021/01/11 01:36:51;;;;;;;33.92;19.83;;;1.80;65.60;;;;;;4983477;28;20490;-63
2021/01/11 01:39:17;;;;;;;29.48;18.95;;;1.90;65.40;;;;;;4991745;28;20535;-65
2021/01/11 01:41:45;;;;;;;32.42;19.38;;;1.80;65.40;;;;;;5007077;28;20030;-62
2021/01/11 01:44:10;;;;;;;29.83;18.48;;;1.90;65.50;;;;;;5020997;28;20029;-62
2021/01/11 01:46:37;;;;;;;32.45;19.42;;;1.80;65.40;;;;;;5011427;28;20092;-61
2021/01/11 01:49:04;;;;;;;34.97;20.20;;;1.90;65.50;;;;;;5020961;28;20022;-61
2021/01/11 01:51:30;;;;;;;30.30;19.08;;;1.90;65.40;;;;;;5005771;28;20045;-64
2021/01/11 01:53:56;;;;;;;31.77;18.67;;;1.90;65.60;;;;;;5024393;28;20030;-61
2021/01/11 01:56:24;;;;;;;34.92;20.20;;;1.80;65.60;;;;;;5022157;28;20049;-61
2021/01/11 01:58:50;;;;;;;31.75;19.67;;;1.90;65.60;;;;;;5025404;28;20493;-64
2021/01/11 02:01:15;;;;;;;34.88;20.10;;;1.90;65.60;;;;;;5023427;28;20030;-61
2021/01/11 02:03:41;;;;;;;31.48;19.13;;;1.80;65.60;;;;;;5023994;28;20029;-66
2021/01/11 02:06:07;;;;;;;31.30;19.55;;;1.80;65.60;;;;;;5025598;28;20077;-63
2021/01/11 02:08:57;;;;;;;30.65;19.10;;;1.80;65.60;;;;;;5023117;28;20285;-61
2021/01/11 02:11:54;;;;;;;29.33;18.75;;;1.80;65.40;;;;;;5020814;28;20064;-61
2021/01/11 02:14:29;;;;;;;30.35;18.60;;;1.70;65.40;;;;;;5022127;28;20061;-62
2021/01/11 02:17:12;;;;;;;28.70;17.77;;;1.80;65.60;;;;;;5021806;28;20022;-61
2021/01/11 02:20:32;;;;;;;32.03;18.27;;;1.80;65.60;;;;;;5018728;28;20029;-61
2021/01/11 02:23:44;;;;;;;31.08;18.05;;;1.70;65.40;;;;;;5020453;28;20410;-61
2021/01/11 02:26:38;;;;;;;30.77;17.20;;;1.70;65.60;;;;;;5023837;28;20051;-63
2021/01/11 02:29:14;;;;;;;28.67;17.85;;;1.70;65.50;;;;;;4989229;28;20493;-61
2021/01/11 02:31:44;;;;;;;29.23;18.52;;;1.60;66.20;;;;;;5021881;28;20171;-60
2021/01/11 02:34:11;;;;;;;30.25;18.00;;;1.70;65.60;;;;;;5028259;28;20052;-60
2021/01/11 02:36:39;;;;;;;27.50;16.45;;;1.70;65.40;;;;;;5006600;28;20088;-60
2021/01/11 02:39:05;;;;;;;27.42;17.85;;;1.70;65.20;;;;;;5022660;28;20065;-61
2021/01/11 02:41:30;;;;;;;26.40;16.13;;;1.70;65.10;;;;;;5034370;28;20439;-61
2021/01/11 02:43:56;;;;;;;27.73;16.85;;;1.60;65.20;;;;;;5017350;28;20104;-61
2021/01/11 02:46:22;;;;;;;26.63;16.73;;;1.60;65.10;;;;;;5030119;28;20039;-62
2021/01/11 02:48:58;;;;;;;27.50;16.80;;;1.60;64.90;;;;;;5008138;28;20034;-61
2021/01/11 02:51:41;;;;;;;24.48;14.98;;;1.60;64.80;;;;;;5014785;28;20109;-62
2021/01/11 02:54:22;;;;;;;26.63;15.90;;;1.70;64.60;;;;;;5031465;28;20076;-62
2021/01/11 02:56:54;;;;;;;23.33;14.07;;;1.70;63.90;;;;;;5015587;28;20053;-61
2021/01/11 02:59:20;;;;;;;24.23;14.65;;;1.70;63.90;;;;;;5015312;28;20112;-62
2021/01/11 03:02:08;;;;;;;25.35;15.90;;;1.60;64.20;;;;;;5013960;28;20083;-61
2021/01/11 03:04:34;;;;;;;23.60;14.52;;;1.70;63.80;;;;;;5029149;28;20025;-61
2021/01/11 03:07:02;;;;;;;22.05;13.88;;;1.60;63.90;;;;;;5007326;28;20054;-61
2021/01/11 03:09:29;;;;;;;24.73;14.80;;;1.60;64.00;;;;;;5014143;28;20113;-61
2021/01/11 03:11:56;;;;;;;25.13;15.05;;;1.60;64.10;;;;;;5014500;28;20068;-61
2021/01/11 03:14:23;;;;;;;21.75;13.82;;;1.60;64.10;;;;;;5011859;28;20479;-61
2021/01/11 03:16:49;;;;;;;23.27;14.73;;;1.60;64.00;;;;;;5014590;28;20053;-62
2021/01/11 03:19:14;;;;;;;24.38;15.48;;;1.50;64.30;;;;;;5015134;28;20399;-60
2021/01/11 03:21:40;;;;;;;22.30;14.63;;;1.60;64.30;;;;;;5014418;28;20038;-62
2021/01/11 03:24:07;;;;;;;25.73;15.50;;;1.60;64.20;;;;;;5000533;28;20083;-60
2021/01/11 03:26:34;;;;;;;23.30;15.07;;;1.60;64.00;;;;;;5033640;28;20029;-61
2021/01/11 03:29:00;;;;;;;23.88;15.63;;;1.60;64.10;;;;;;5034395;28;20108;-60
2021/01/11 03:31:25;;;;;;;23.05;14.98;;;1.70;64.00;;;;;;5016326;28;20120;-61
2021/01/11 03:33:51;;;;;;;22.02;14.93;;;1.70;63.80;;;;;;5011177;28;20041;-60
2021/01/11 03:36:17;;;;;;;25.02;16.02;;;1.70;63.60;;;;;;5013382;28;20486;-68
2021/01/11 03:38:44;;;;;;;23.55;15.95;;;1.60;63.60;;;;;;5013406;28;20064;-61
2021/01/11 03:41:09;;;;;;;25.50;16.23;;;1.60;63.90;;;;;;5014610;28;20022;-61
2021/01/11 03:43:40;;;;;;;27.00;17.23;;;1.60;63.90;;;;;;5026106;28;20040;-61
2021/01/11 03:46:07;;;;;;;26.25;16.77;;;1.60;64.00;;;;;;5033823;28;20033;-61
2021/01/11 03:48:34;;;;;;;26.13;16.55;;;1.60;64.00;;;;;;5030971;28;20123;-61
2021/01/11 03:51:03;;;;;;;26.35;16.80;;;1.50;64.20;;;;;;4996551;28;20034;-61
2021/01/11 03:53:29;;;;;;;38.80;22.77;;;1.50;64.90;;;;;;5007924;28;20464;-61
2021/01/11 03:55:54;;;;;;;31.65;18.58;;;1.50;64.60;;;;;;5033639;28;20127;-61
2021/01/11 03:58:20;;;;;;;29.65;18.95;;;1.50;64.50;;;;;;5027629;28;20451;-62
2021/01/11 04:00:49;;;;;;;28.98;17.55;;;1.50;64.60;;;;;;5013770;28;20131;-61
2021/01/11 04:03:16;;;;;;;28.08;17.42;;;1.50;64.70;;;;;;4998666;28;20132;-61
2021/01/11 04:05:48;;;;;;;28.33;16.63;;;1.40;64.90;;;;;;5014573;28;20041;-61
2021/01/11 04:08:14;;;;;;;31.55;17.95;;;1.30;65.10;;;;;;5013416;28;20030;-62
2021/01/11 04:10:40;;;;;;;28.88;17.83;;;1.20;65.50;;;;;;5012454;28;20057;-62
2021/01/11 04:13:07;;;;;;;29.65;17.85;;;1.10;66.00;;;;;;5013360;28;20030;-61
2021/01/11 04:15:33;;;;;;;27.88;16.42;;;1.00;66.60;;;;;;5005603;28;20048;-61
2021/01/11 04:18:00;;;;;;;28.73;17.80;;;0.90;67.30;;;;;;5032551;28;20134;-61
2021/01/11 04:20:26;;;;;;;28.42;17.42;;;0.90;67.60;;;;;;5030783;28;20145;-61
2021/01/11 04:22:52;;;;;;;33.08;19.95;;;0.80;68.10;;;;;;5013364;28;20034;-61
2021/01/11 04:25:18;;;;;;;30.70;18.80;;;0.80;68.10;;;;;;5025914;28;20436;-61
2021/01/11 04:27:44;;;;;;;32.42;19.88;;;0.80;68.20;;;;;;5032745;28;20068;-61
2021/01/11 04:32:55;;;;;;;33.20;20.27;;;0.90;67.90;;;;;;5017082;28;20114;-61
2021/01/11 04:35:23;;;;;;;32.90;20.30;;;1.00;68.00;;;;;;4995081;28;20038;-69
2021/01/11 04:37:49;;;;;;;33.55;20.10;;;1.00;67.80;;;;;;4995607;28;20026;-61
2021/01/11 04:40:15;;;;;;;33.63;20.02;;;1.00;67.80;;;;;;4996665;28;20517;-62
2021/01/11 04:43:04;;;;;;;32.72;19.90;;;1.00;67.90;;;;;;4994733;28;20420;-61
2021/01/11 04:45:31;;;;;;;31.42;19.85;;;1.00;68.20;;;;;;5003426;28;20046;-61
2021/01/11 04:47:58;;;;;;;33.17;19.50;;;1.00;68.00;;;;;;5012280;28;20030;-62
2021/01/11 04:50:26;;;;;;;33.42;20.42;;;1.00;68.70;;;;;;5012485;28;20109;-62
2021/01/11 04:52:52;;;;;;;31.17;19.65;;;1.00;68.20;;;;;;5012439;28;20022;-62
2021/01/11 04:55:19;;;;;;;32.97;19.35;;;1.00;68.20;;;;;;4994749;28;20050;-62
2021/01/11 04:57:55;;;;;;;33.42;19.95;;;1.00;68.30;;;;;;5012222;28;20022;-61
2021/01/11 05:00:28;;;;;;;31.30;19.10;;;1.00;68.30;;;;;;5023492;28;20025;-62
2021/01/11 05:03:04;;;;;;;34.70;20.30;;;0.90;68.40;;;;;;5020955;28;20053;-62
2021/01/11 05:05:31;;;;;;;34.13;20.17;;;1.00;68.50;;;;;;4997148;28;20083;-63
2021/01/11 05:07:58;;;;;;;34.45;20.05;;;1.00;68.80;;;;;;4995967;28;20053;-62
2021/01/11 05:10:25;;;;;;;34.85;20.77;;;0.90;69.30;;;;;;4994821;28;20420;-62
2021/01/11 05:12:55;;;;;;;34.25;20.77;;;0.90;69.30;;;;;;5019647;28;20163;-62
2021/01/11 05:15:22;;;;;;;36.30;21.60;;;0.90;69.50;;;;;;5019775;28;20021;-62
2021/01/11 05:17:47;;;;;;;34.90;20.50;;;1.00;69.20;;;;;;5031213;28;20108;-61
2021/01/11 05:20:15;;;;;;;36.08;22.13;;;1.00;69.20;;;;;;5031153;28;20159;-62
2021/01/11 05:22:47;;;;;;;39.03;23.10;;;1.10;69.00;;;;;;5008463;28;20034;-62
2021/01/11 05:25:17;;;;;;;37.53;20.88;;;1.10;68.80;;;;;;5010615;28;20025;-65
2021/01/11 05:27:44;;;;;;;36.58;20.42;;;1.10;68.70;;;;;;5010540;28;20022;-63
2021/01/11 05:30:36;;;;;;;32.08;19.42;;;1.10;68.50;;;;;;5009850;28;20032;-62
2021/01/11 05:33:03;;;;;;;31.17;19.50;;;1.20;68.20;;;;;;5008405;28;20107;-61
2021/01/11 05:35:29;;;;;;;30.10;18.77;;;1.20;68.00;;;;;;5010122;28;20390;-63
2021/01/11 05:37:55;;;;;;;33.80;20.13;;;1.20;67.70;;;;;;5008747;28;20018;-62
2021/01/11 05:40:23;;;;;;;29.45;18.70;;;1.20;67.70;;;;;;5011808;28;20111;-60
2021/01/11 05:42:54;;;;;;;30.48;18.48;;;1.20;67.70;;;;;;5016700;28;20055;-60
2021/01/11 05:45:33;;;;;;;28.90;18.75;;;1.20;67.60;;;;;;5013417;28;20485;-61
2021/01/11 05:48:06;;;;;;;30.27;18.13;;;1.20;67.40;;;;;;5001222;28;20033;-62
2021/01/11 05:50:33;;;;;;;;;;;1.20;67.40;;;;;;5000957;28;20033;-64
2021/01/11 05:52:59;;;;;;;28.77;17.63;;;1.20;67.50;;;;;;5011493;28;19927;-64
2021/01/11 05:55:30;;;;;;;31.27;18.30;;;1.10;67.50;;;;;;5029736;28;20053;-62
2021/01/11 05:58:01;;;;;;;31.42;19.25;;;1.00;67.70;;;;;;5029844;28;20532;-62
2021/01/11 06:00:29;;;;;;;30.65;18.95;;;1.00;68.00;;;;;;5029130;28;20137;-62
2021/01/11 06:02:56;;;;;;;30.02;19.45;;;0.90;68.20;;;;;;5030221;28;20471;-61
2021/01/11 06:05:23;;;;;;;29.48;18.42;;;1.00;68.30;;;;;;5021650;28;20034;-62
2021/01/11 06:07:49;;;;;;;28.23;17.45;;;1.00;68.30;;;;;;5012039;28;20061;-62
2021/01/11 06:10:16;;;;;;;30.13;18.20;;;1.00;68.30;;;;;;4975426;28;20466;-62
2021/01/11 06:12:43;;;;;;;32.40;19.10;;;1.00;68.60;;;;;;4969143;28;20446;-64
2021/01/11 06:15:11;;;;;;;31.20;19.42;;;0.90;68.80;;;;;;5005549;28;20022;-60
2021/01/11 06:17:42;;;;;;;30.98;18.90;;;1.00;68.60;;;;;;5010804;28;20068;-62
2021/01/11 06:20:12;;;;;;;33.13;20.20;;;1.10;68.60;;;;;;4992544;28;20045;-63
2021/01/11 06:22:44;;;;;;;35.88;20.75;;;1.10;68.40;;;;;;4990523;28;20034;-63
2021/01/11 06:25:33;;;;;;;32.35;19.10;;;1.10;68.40;;;;;;5006878;28;20033;-62
2021/01/11 06:28:27;;;;;;;31.98;19.48;;;1.20;68.00;;;;;;5003414;28;20049;-62
2021/01/11 06:30:53;;;;;;;;;;;1.20;67.60;;;;;;4991458;28;20064;-63
2021/01/11 06:33:26;;;;;;;30.65;17.95;;;1.20;67.40;;;;;;4983383;28;20354;-62
2021/01/11 06:35:54;;;;;;;31.45;19.63;;;1.20;67.60;;;;;;5011972;28;20033;-63
2021/01/11 06:38:25;;;;;;;31.63;18.85;;;1.20;67.30;;;;;;4999375;28;20037;-62
2021/01/11 06:41:04;;;;;;;30.35;18.48;;;1.20;67.50;;;;;;4996368;28;20478;-62
2021/01/11 06:43:40;;;;;;;31.45;18.20;;;1.30;67.40;;;;;;5011337;28;20034;-60
2021/01/11 06:46:06;;;;;;;30.90;18.98;;;1.20;67.40;;;;;;5014803;28;20037;-62
2021/01/11 06:48:34;;;;;;;29.08;18.27;;;1.30;67.60;;;;;;5023870;28;20075;-66
2021/01/11 06:51:08;;;;;;;33.28;19.33;;;1.30;67.40;;;;;;5014071;28;20037;-62
2021/01/11 06:53:33;;;;;;;32.03;19.40;;;1.40;67.00;;;;;;5033245;28;20029;-62
2021/01/11 06:56:09;;;;;;;30.95;18.75;;;1.40;66.80;;;;;;5010091;28;20376;-62
2021/01/11 06:58:37;;;;;;;34.38;19.23;;;1.30;66.70;;;;;;4995670;28;20033;-63
2021/01/11 07:01:11;;;;;;;32.25;19.95;;;1.30;67.00;;;;;;5018255;28;20059;-62
2021/01/11 07:03:50;;;;;;;29.25;18.90;;;1.40;67.00;;;;;;4984730;28;20121;-64
2021/01/11 07:06:41;;;;;;;31.42;18.90;;;1.30;67.00;;;;;;4980691;28;20048;-62
2021/01/11 07:09:11;;;;;;;33.38;19.88;;;1.40;67.00;;;;;;4990812;28;20442;-63
2021/01/11 07:11:39;;;;;;;35.10;20.08;;;1.50;67.40;;;;;;4993962;28;20034;-66
2021/01/11 07:14:06;;;;;;;32.33;19.83;;;1.60;66.60;;;;;;5013507;28;20113;-63
2021/01/11 07:16:40;;;;;;;32.58;19.95;;;1.70;66.50;;;;;;5012910;28;20030;-69
2021/01/11 07:19:05;;;;;;;33.05;20.13;;;1.70;66.20;;;;;;5010800;28;20034;-62
2021/01/11 07:21:31;;;;;;;30.15;18.90;;;1.80;66.10;;;;;;5009206;28;20084;-67
2021/01/11 07:23:59;;;;;;;30.95;19.42;;;1.70;66.00;;;;;;5012358;28;20041;-62
2021/01/11 07:26:26;;;;;;;31.58;19.05;;;1.80;66.00;;;;;;5013858;28;20161;-62
2021/01/11 07:29:11;;;;;;;29.85;18.60;;;1.90;65.90;;;;;;5011891;28;20454;-62
2021/01/11 07:31:44;;;;;;;34.80;19.17;;;1.80;65.80;;;;;;5012782;28;20463;-62
2021/01/11 07:34:11;;;;;;;;;;;1.90;65.90;;;;;;4997954;28;20113;-62
2021/01/11 07:36:41;;;;;;;32.33;18.98;;;1.90;65.90;;;;;;5011981;28;20011;-63
2021/01/11 07:39:20;;;;;;;32.67;20.23;;;2.00;65.80;;;;;;5012031;28;20018;-64
2021/01/11 07:41:51;;;;;;;31.58;18.50;;;2.10;65.50;;;;;;5009160;28;20046;-62
2021/01/11 07:44:18;;;;;;;30.75;18.20;;;2.10;65.30;;;;;;4997208;28;20383;-63
2021/01/11 07:46:51;;;;;;;27.88;19.13;;;2.20;65.20;;;;;;5024775;28;20077;-62
2021/01/11 07:49:17;;;;;;;27.58;19.88;;;3.60;64.20;;;;;;5005935;28;20022;-62
2021/01/11 07:51:47;;;;;;;28.63;19.52;;;5.90;55.10;;;;;;5016070;28;20077;-62
2021/01/11 07:54:15;;;;;;;25.02;18.83;;;7.30;50.30;;;;;;5012242;28;20014;-63
2021/01/11 07:56:41;;;;;;;25.25;18.85;;;8.30;46.80;;;;;;5010934;28;20044;-64
2021/01/11 07:59:07;;;;;;;25.67;18.90;;;8.90;45.70;;;;;;5006158;28;20465;-62
2021/01/11 08:01:44;;;;;;;26.85;18.77;;;9.10;43.00;;;;;;4993763;28;20026;-62
2021/01/11 08:04:11;;;;;;;24.10;16.10;;;8.00;44.50;;;;;;4996882;28;20033;-64
2021/01/11 08:07:06;;;;;;;29.33;17.92;;;6.90;47.60;;;;;;5002831;28;20026;-63
2021/01/11 08:09:32;;;;;;;28.10;18.00;;;6.00;50.10;;;;;;5006920;28;20523;-62
2021/01/11 08:12:17;;;;;;;31.08;18.35;;;5.50;51.60;;;;;;5012636;28;20033;-62
2021/01/11 08:14:47;;;;;;;30.15;19.27;;;5.10;52.90;;;;;;5009046;28;20034;-62
2021/01/11 08:17:20;;;;;;;26.20;16.63;;;4.80;53.90;;;;;;4998916;28;20583;-63
2021/01/11 08:19:50;;;;;;;27.67;17.45;;;4.50;54.50;;;;;;5011393;28;20022;-63
2021/01/11 08:22:17;;;;;;;28.52;17.65;;;4.30;55.60;;;;;;5017632;28;20029;-66
2021/01/11 08:24:44;;;;;;;24.65;16.40;;;4.10;56.20;;;;;;5031576;28;20060;-61
2021/01/11 08:27:34;;;;;;;25.33;16.73;;;3.90;56.80;;;;;;5002783;28;20079;-61
2021/01/11 08:30:03;;;;;;;28.30;17.10;;;3.70;57.60;;;;;;5007223;28;20057;-64
2021/01/11 08:35:19;;;;;;;23.90;16.30;;;3.50;58.60;;;;;;5021022;28;20045;-63
2021/01/11 08:37:45;;;;;;;29.13;16.70;;;3.60;58.50;;;;;;5012528;28;20474;-63
2021/01/11 08:40:19;;;;;;;32.20;17.02;;;3.50;58.70;;;;;;5012749;28;20030;-63
2021/01/11 08:42:46;;;;;;;28.63;16.75;;;3.40;59.00;;;;;;4974662;28;20030;-63
2021/01/11 08:45:27;;;;;;;26.50;17.95;;;3.40;59.30;;;;;;5008996;28;20121;-65
2021/01/11 08:48:06;;;;;;;24.58;16.05;;;3.30;59.80;;;;;;5002996;28;20079;-63
2021/01/11 08:50:38;;;;;;;27.08;17.55;;;3.20;60.00;;;;;;5005133;28;20105;-67
2021/01/11 08:53:30;;;;;;;27.92;18.15;;;3.20;60.20;;;;;;5009208;28;20064;-63
2021/01/11 08:56:02;;;;;;;25.80;16.70;;;3.30;60.30;;;;;;5010643;28;20119;-63
2021/01/11 08:58:29;;;;;;;28.38;17.27;;;3.20;60.20;;;;;;5010195;28;20053;-63
2021/01/11 09:01:13;;;;;;;26.13;17.27;;;3.20;60.50;;;;;;5010038;28;20022;-64
2021/01/11 09:03:52;;;;;;;25.95;16.10;;;3.30;60.20;;;;;;5010288;28;20033;-64
2021/01/11 09:06:45;;;;;;;27.33;16.45;;;3.30;59.80;;;;;;4998128;28;20092;-62
2021/01/11 09:09:11;;;;;;;26.30;17.63;;;3.30;60.10;;;;;;5011551;28;20038;-62
2021/01/11 09:11:39;;;;;;;30.67;17.13;;;3.50;60.10;;;;;;4995258;28;20037;-70
2021/01/11 09:14:04;;;;;;;31.95;18.50;;;3.50;59.30;;;;;;4966917;28;20768;-61
2021/01/11 09:16:32;;;;;;;32.15;18.08;;;3.60;59.50;;;;;;4978983;28;20358;-61
2021/01/11 09:19:05;;;;;;;28.17;17.15;;;3.70;59.00;;;;;;5016534;28;20026;-60
2021/01/11 09:21:31;;;;;;;34.63;20.33;;;3.80;59.70;;;;;;4993197;28;20061;-63
2021/01/11 09:23:57;;;;;;;30.70;18.05;;;3.90;58.40;;;;;;4972057;28;20030;-63
2021/01/11 09:26:22;;;;;;;26.80;16.80;;;4.00;58.30;;;;;;5011140;28;20518;-62
2021/01/11 09:28:48;;;;;;;26.77;16.33;;;4.00;57.80;;;;;;5009885;28;20026;-62
2021/01/11 09:31:14;;;;;;;28.45;17.13;;;4.10;57.70;;;;;;5009791;28;20433;-66
2021/01/11 09:33:39;;;;;;;26.13;16.88;;;4.10;57.70;;;;;;4985942;28;20045;-64
2021/01/11 09:36:05;;;;;;;26.40;15.73;;;4.00;57.80;;;;;;5007221;28;20034;-65
2021/01/11 09:38:31;;;;;;;27.50;17.20;;;4.00;57.90;;;;;;5010702;28;20466;-66
2021/01/11 09:40:56;;;;;;;28.92;16.52;;;4.00;58.10;;;;;;4987008;28;20543;-66
2021/01/11 09:43:22;;;;;;;26.63;17.00;;;3.90;58.30;;;;;;5011112;28;20057;-67
2021/01/11 09:45:48;;;;;;;28.38;17.10;;;3.90;58.40;;;;;;5010613;28;20030;-65
2021/01/11 09:48:13;;;;;;;27.35;17.52;;;4.00;58.20;;;;;;5009378;28;20041;-65
2021/01/11 09:50:40;;;;;;;28.13;17.63;;;3.80;58.50;;;;;;5010249;28;20061;-65
2021/01/11 09:55:49;;;;;;;25.70;16.42;;;3.70;59.10;;;;;;5015366;28;20546;-67
2021/01/11 09:58:16;;;;;;;29.27;17.70;;;3.80;59.10;;;;;;4984230;28;20120;-64
2021/01/11 10:00:42;;;;;;;29.15;17.27;;;3.70;59.10;;;;;;4989339;28;20042;-62
2021/01/11 10:03:08;;;;;;;26.05;16.73;;;3.70;59.40;;;;;;5010130;28;20073;-64
2021/01/11 10:05:34;;;;;;;25.88;17.00;;;3.80;59.30;;;;;;5009621;28;20043;-65
2021/01/11 10:08:00;;;;;;;29.42;17.63;;;3.80;59.10;;;;;;5012309;28;20034;-64
2021/01/11 10:10:26;;;;;;;28.00;17.50;;;4.00;59.00;;;;;;5013731;28;20475;-65
2021/01/11 10:12:52;;;;;;;28.65;16.98;;;4.20;58.30;;;;;;5022169;28;20021;-64
2021/01/11 10:15:18;;;;;;;25.13;15.90;;;4.30;57.60;;;;;;5015178;28;20095;-63
2021/01/11 10:17:44;;;;;;;28.13;17.65;;;4.20;57.70;;;;;;5013816;28;20463;-65
2021/01/11 10:20:28;;;;;;;28.75;17.38;;;4.10;58.30;;;;;;5014220;28;20030;-64
2021/01/11 10:22:54;;;;;;;27.02;16.80;;;4.10;58.00;;;;;;5011646;28;20489;-64
2021/01/11 10:25:20;;;;;;;25.80;16.25;;;4.20;57.90;;;;;;5013078;28;20097;-64
2021/01/11 10:27:46;;;;;;;26.30;16.73;;;4.40;57.50;;;;;;5011579;28;20033;-64
2021/01/11 10:30:13;;;;;;;24.70;16.10;;;4.40;57.20;;;;;;5014244;28;20056;-64
2021/01/11 10:32:40;;;;;;;26.05;15.70;;;4.50;56.80;;;;;;4993949;28;20038;-64
2021/01/11 10:35:06;;;;;;;25.23;16.25;;;4.50;56.60;;;;;;4993030;28;20117;-66
2021/01/11 10:37:32;;;;;;;28.52;16.88;;;4.30;57.10;;;;;;5020231;28;20033;-60
2021/01/11 10:39:57;;;;;;;27.58;16.98;;;4.50;57.10;;;;;;5013652;28;20311;-64
2021/01/11 10:42:27;;;;;;;25.73;15.88;;;4.80;56.50;;;;;;5013990;28;20459;-64
2021/01/11 10:44:53;;;;;;;27.25;16.60;;;5.20;55.50;;;;;;5011217;28;20116;-64
2021/01/11 10:47:19;;;;;;;25.00;16.60;;;6.00;53.00;;;;;;5004321;28;20026;-62
2021/01/11 10:49:44;;;;;;;25.15;16.30;;;6.80;52.10;;;;;;5011734;28;20486;-70
2021/01/11 10:52:10;;;;;;;25.38;16.70;;;7.90;48.20;;;;;;4987937;28;20447;-65
2021/01/11 10:54:35;;;;;;;28.23;16.95;;;8.10;46.40;;;;;;5006859;28;20032;-66
2021/01/11 10:57:01;;;;;;;24.65;16.20;;;7.80;47.30;;;;;;5000607;28;20061;-63
2021/01/11 10:59:29;;;;;;;28.30;15.48;;;8.40;46.20;;;;;;5000211;28;20148;-63
2021/01/11 11:01:55;;;;;;;24.13;14.68;;;7.80;45.20;;;;;;5013872;28;20029;-63
2021/01/11 11:04:23;;;;;;;25.85;15.82;;;7.10;47.30;;;;;;5013000;28;20113;-63
2021/01/11 11:06:49;;;;;;;24.38;15.25;;;6.60;48.60;;;;;;5012979;28;20087;-63
2021/01/11 11:09:15;;;;;;;24.50;16.05;;;6.20;49.90;;;;;;5014358;28;20026;-63
2021/01/11 11:11:41;;;;;;;25.98;15.55;;;6.10;50.70;;;;;;5017653;28;20033;-73
2021/01/11 11:14:07;;;;;;;25.08;15.90;;;6.10;51.00;;;;;;5012171;28;20514;-62
2021/01/11 11:16:33;;;;;;;23.67;15.95;;;6.10;50.70;;;;;;5028306;28;20057;-65
2021/01/11 11:19:17;;;;;;;23.77;16.42;;;6.00;51.10;;;;;;5015234;28;20037;-61
2021/01/11 11:21:43;;;;;;;23.35;15.43;;;6.10;51.10;;;;;;5012931;28;20417;-63
2021/01/11 11:24:08;;;;;;;28.95;16.42;;;6.10;51.20;;;;;;4993081;28;20148;-62
2021/01/11 11:26:34;;;;;;;28.27;16.50;;;6.10;51.20;;;;;;5014060;28;20030;-65
2021/01/11 11:29:00;;;;;;;25.15;16.45;;;6.10;50.80;;;;;;5013277;28;20213;-63
2021/01/11 11:31:27;;;;;;;28.23;16.17;;;5.90;50.80;;;;;;5013878;28;20030;-65
2021/01/11 11:33:52;;;;;;;26.20;16.70;;;5.90;51.40;;;;;;5012923;28;20098;-63
2021/01/11 11:36:21;;;;;;;28.02;17.70;;;6.50;51.80;;;;;;4997174;28;20037;-64
2021/01/11 11:38:47;;;;;;;25.20;17.35;;;7.70;48.30;;;;;;4996092;28;20025;-64
2021/01/11 11:41:13;;;;;;;26.60;16.45;;;7.70;46.40;;;;;;5015373;28;20108;-65
2021/01/11 11:43:38;;;;;;;26.90;17.17;;;7.20;47.10;;;;;;5014155;28;20041;-68
2021/01/11 11:46:04;;;;;;;25.65;16.63;;;6.80;48.10;;;;;;4986774;28;20030;-60
2021/01/11 11:48:30;;;;;;;27.00;17.10;;;6.70;48.80;;;;;;5014787;28;20104;-57
2021/01/11 11:50:55;;;;;;;26.83;17.35;;;6.50;49.20;;;;;;5014418;28;20030;-61
2021/01/11 11:53:22;;;;;;;28.73;16.23;;;6.50;49.70;;;;;;5016962;28;20061;-61
2021/01/11 11:55:47;;;;;;;27.35;17.85;;;6.40;49.60;;;;;;5025656;28;20149;-61
2021/01/11 11:58:13;;;;;;;29.17;17.85;;;6.30;50.20;;;;;;5010479;28;20109;-64
2021/01/11 12:00:39;;;;;;;24.67;16.60;;;6.30;50.20;;;;;;5007006;28;20034;-68
2021/01/11 12:03:04;;;;;;;26.90;17.35;;;6.40;49.70;;;;;;5016072;28;20482;-61
2021/01/11 12:05:30;;;;;;;25.98;16.77;;;6.30;49.90;;;;;;5019735;28;20386;-58
2021/01/11 12:07:55;;;;;;;28.88;16.15;;;6.30;49.90;;;;;;5021259;28;20033;-63
2021/01/11 12:10:21;;;;;;;26.42;16.77;;;6.10;50.10;;;;;;4997174;28;20111;-62
2021/01/11 12:12:48;;;;;;;26.15;17.60;;;6.00;50.30;;;;;;5012128;28;20533;-62
2021/01/11 12:15:14;;;;;;;27.10;16.33;;;6.00;50.60;;;;;;5012059;28;20116;-61
2021/01/11 12:17:42;;;;;;;29.52;16.88;;;6.00;50.30;;;;;;5015866;28;20041;-64
2021/01/11 12:20:09;;;;;;;23.42;15.20;;;5.80;50.90;;;;;;5022634;28;20030;-58
2021/01/11 12:22:35;;;;;;;25.25;16.17;;;5.60;51.10;;;;;;4983844;28;20375;-61
2021/01/11 12:25:02;;;;;;;25.25;15.32;;;5.50;51.60;;;;;;5011548;28;20025;-60
2021/01/11 12:27:28;;;;;;;25.75;16.00;;;5.40;52.00;;;;;;5003740;28;20390;-67
2021/01/11 12:29:54;;;;;;;28.13;16.25;;;5.30;52.30;;;;;;5012660;28;20030;-64
2021/01/11 12:32:20;;;;;;;28.30;16.05;;;5.30;52.30;;;;;;5007980;28;20076;-58
2021/01/11 12:34:45;;;;;;;25.52;16.05;;;5.40;52.10;;;;;;5017081;28;20065;-62
2021/01/11 12:37:16;;;;;;;25.10;16.33;;;5.40;52.10;;;;;;5020615;28;20080;-60
2021/01/11 12:39:42;;;;;;;25.65;16.40;;;5.40;51.90;;;;;;4990914;28;20470;-65
2021/01/11 12:42:09;;;;;;;28.42;16.40;;;5.40;52.10;;;;;;4996155;28;20167;-61
2021/01/11 12:44:35;;;;;;;28.17;16.77;;;5.30;51.90;;;;;;5018751;28;20042;-59
2021/01/11 12:47:01;;;;;;;30.58;18.98;;;5.30;52.10;;;;;;5019581;28;20029;-57
2021/01/11 12:49:30;;;;;;;24.42;14.57;;;5.30;52.30;;;;;;5003102;28;20471;-59
2021/01/11 12:51:58;;;;;;;28.13;15.75;;;5.10;52.40;;;;;;4996995;28;20088;-63
2021/01/11 12:54:25;;;;;;;27.42;15.93;;;5.10;52.90;;;;;;5004874;28;20066;-57
2021/01/11 12:56:51;;;;;;;27.92;17.45;;;5.20;52.70;;;;;;5009862;28;20077;-59